Aviation Digital Data Service (ADDS)

Output produced by METARs form (2234 UTC 24 September 2016)
found at http://aviationweather.gov/adds/metars/
 
KALB 241958Z 2420/2518 01008KT P6SM SCT060 
     TEMPO 2420/2422 BKN060 
     FM242200 32007KT P6SM SKC 
     FM250400 00000KT P6SM SKC 
     FM251200 33006KT P6SM FEW250